createdAt,value
2023-04-18T00:00:13.919Z,23.40
2023-04-18T00:03:09.881Z,23.30
2023-04-18T00:05:44.143Z,26.60
2023-04-18T00:08:17.435Z,23.20
2023-04-18T00:10:50.549Z,23.10
2023-04-18T00:13:23.463Z,24.40
2023-04-18T00:15:56.998Z,20.40
2023-04-18T00:18:29.981Z,23.80
2023-04-18T00:21:03.331Z,24.20
2023-04-18T00:23:36.354Z,25.20
2023-04-18T00:26:09.457Z,27.10
2023-04-18T00:28:42.710Z,23.30
2023-04-18T00:31:16.636Z,24.60
2023-04-18T00:33:50.021Z,24.60
2023-04-18T00:36:23.104Z,25.10
2023-04-18T00:38:56.183Z,25.40
2023-04-18T00:41:29.294Z,29.80
2023-04-18T00:44:02.406Z,20.70
2023-04-18T00:46:35.578Z,22.00
2023-04-18T00:49:09.427Z,26.10
2023-04-18T00:51:43.043Z,25.00
2023-04-18T00:54:18.466Z,30.10
2023-04-18T00:56:51.963Z,26.40
2023-04-18T00:59:25.162Z,24.50
2023-04-18T01:01:58.793Z,24.60
2023-04-18T01:04:32.765Z,22.60
2023-04-18T01:07:06.364Z,29.20
2023-04-18T01:09:39.863Z,25.10
2023-04-18T01:12:13.026Z,24.00
2023-04-18T01:14:47.306Z,27.50
2023-04-18T01:17:20.908Z,24.00
2023-04-18T01:19:53.985Z,24.20
2023-04-18T01:22:27.682Z,26.70
2023-04-18T01:25:00.930Z,24.90
2023-04-18T01:27:33.983Z,25.10
2023-04-18T01:30:08.257Z,25.70
2023-04-18T01:32:41.298Z,25.70
2023-04-18T01:35:14.870Z,23.90
2023-04-18T01:37:47.842Z,23.90
2023-04-18T01:40:21.111Z,24.50
2023-04-18T01:42:54.739Z,24.20
2023-04-18T01:45:27.840Z,20.80
2023-04-18T01:48:01.107Z,21.20
2023-04-18T01:50:34.341Z,16.90
2023-04-18T01:53:07.291Z,21.00
2023-04-18T01:55:40.353Z,20.30
2023-04-18T01:58:13.651Z,21.90
2023-04-18T02:00:46.632Z,21.00
2023-04-18T02:03:22.218Z,18.60
2023-04-18T02:05:55.507Z,20.20
2023-04-18T02:08:28.495Z,20.20
2023-04-18T02:11:02.163Z,21.80
2023-04-18T02:13:35.451Z,23.40
2023-04-18T02:16:15.999Z,25.80
2023-04-18T02:18:52.576Z,22.60
2023-04-18T02:21:25.571Z,24.40
2023-04-18T02:23:58.974Z,20.70
2023-04-18T02:26:31.908Z,19.90
2023-04-18T02:29:04.932Z,21.60
2023-04-18T02:31:41.441Z,22.20
2023-04-18T02:34:14.749Z,25.40
2023-04-18T02:36:48.142Z,23.60
2023-04-18T02:39:22.252Z,21.40
2023-04-18T02:41:55.960Z,22.00
2023-04-18T02:44:29.609Z,22.10
2023-04-18T02:47:02.770Z,20.00
2023-04-18T02:49:35.912Z,21.10
2023-04-18T02:52:08.944Z,21.10
2023-04-18T02:54:42.072Z,20.10
2023-04-18T02:57:19.056Z,22.10
2023-04-18T03:00:21.825Z,17.60
2023-04-18T03:03:11.580Z,20.30
2023-04-18T03:05:47.824Z,19.50
2023-04-18T03:08:20.893Z,23.30
2023-04-18T03:10:56.406Z,19.00
2023-04-18T03:13:30.153Z,21.60
2023-04-18T03:16:03.868Z,24.70
2023-04-18T03:18:37.567Z,19.20
2023-04-18T03:21:11.617Z,22.00
2023-04-18T03:23:44.869Z,20.70
2023-04-18T03:26:18.101Z,22.20
2023-04-18T03:28:51.212Z,21.30
2023-04-18T03:31:24.553Z,18.80
2023-04-18T03:33:57.590Z,20.10
2023-04-18T03:36:31.848Z,25.50
2023-04-18T03:39:05.501Z,19.20
2023-04-18T03:41:40.566Z,20.70
2023-04-18T03:44:14.043Z,25.90
2023-04-18T03:46:47.757Z,23.10
2023-04-18T03:49:20.972Z,19.70
2023-04-18T03:51:54.030Z,25.10
2023-04-18T03:54:27.098Z,25.50
2023-04-18T03:57:00.286Z,29.10
2023-04-18T03:59:33.864Z,25.00
2023-04-18T04:02:06.981Z,21.10
2023-04-18T04:04:40.259Z,27.40
2023-04-18T04:07:13.680Z,29.10
2023-04-18T04:09:46.713Z,24.50
2023-04-18T04:12:20.121Z,25.30
2023-04-18T04:14:53.514Z,30.70
2023-04-18T04:17:26.824Z,24.70
2023-04-18T04:20:00.011Z,27.20
2023-04-18T04:22:34.645Z,26.70
2023-04-18T04:25:09.265Z,28.00
2023-04-18T04:27:44.816Z,26.20
2023-04-18T04:30:18.569Z,26.90
2023-04-18T04:32:52.335Z,25.00
2023-04-18T04:35:26.725Z,26.50
2023-04-18T04:38:01.812Z,28.70
2023-04-18T04:40:43.850Z,29.40
2023-04-18T04:43:20.724Z,26.40
2023-04-18T04:45:54.839Z,30.00
2023-04-18T04:48:31.737Z,27.00
2023-04-18T04:51:05.736Z,26.00
2023-04-18T04:53:39.146Z,30.10
2023-04-18T04:56:13.150Z,28.50
2023-04-18T04:58:47.401Z,27.80
2023-04-18T05:01:35.022Z,26.90
2023-04-18T05:04:08.555Z,25.50
2023-04-18T05:06:41.842Z,25.00
2023-04-18T05:09:15.172Z,24.50
2023-04-18T05:11:49.518Z,23.10
2023-04-18T05:14:22.585Z,26.50
2023-04-18T05:16:56.666Z,26.90
2023-04-18T05:19:29.718Z,23.70
2023-04-18T05:22:03.295Z,25.20
2023-04-18T05:24:36.322Z,23.60
2023-04-18T05:27:10.111Z,26.30
2023-04-18T05:29:43.316Z,27.20
2023-04-18T05:32:16.593Z,29.40
2023-04-18T05:34:49.606Z,26.00
2023-04-18T05:37:22.953Z,27.20
2023-04-18T05:39:56.052Z,36.40
2023-04-18T05:42:29.384Z,26.20
2023-04-18T05:45:02.342Z,25.90
2023-04-18T05:47:35.702Z,25.00
2023-04-18T05:50:10.776Z,26.30
2023-04-18T05:52:43.804Z,27.30
2023-04-18T05:55:16.905Z,29.70
2023-04-18T05:57:49.888Z,26.70
2023-04-18T06:00:24.370Z,25.20
2023-04-18T06:02:57.460Z,25.90
2023-04-18T06:05:31.249Z,28.20
2023-04-18T06:08:04.937Z,29.70
2023-04-18T06:10:39.080Z,32.50
2023-04-18T06:13:12.516Z,29.50
2023-04-18T06:15:45.507Z,23.80
2023-04-18T06:18:19.042Z,29.90
2023-04-18T06:20:52.265Z,22.90
2023-04-18T06:23:25.408Z,24.50
2023-04-18T06:25:58.776Z,22.70
2023-04-18T06:28:32.204Z,21.90
2023-04-18T06:31:05.250Z,25.20
2023-04-18T06:33:39.244Z,24.40
2023-04-18T06:36:13.325Z,24.40
2023-04-18T06:38:46.399Z,23.40
2023-04-18T06:41:19.798Z,21.60
2023-04-18T06:44:03.343Z,24.30
2023-04-18T06:46:37.450Z,25.10
2023-04-18T06:49:11.204Z,23.40
2023-04-18T06:51:44.190Z,23.90
2023-04-18T06:54:17.132Z,21.70
2023-04-18T06:56:50.294Z,23.20
2023-04-18T06:59:23.605Z,21.30
2023-04-18T07:01:56.583Z,18.70
2023-04-18T07:04:29.764Z,20.60
2023-04-18T07:07:03.984Z,23.20
2023-04-18T07:09:37.208Z,21.30
2023-04-18T07:12:10.804Z,21.70
2023-04-18T07:14:43.789Z,18.30
2023-04-18T07:17:16.872Z,17.40
2023-04-18T07:19:49.837Z,21.00
2023-04-18T07:22:22.975Z,18.70
2023-04-18T07:24:56.084Z,14.80
2023-04-18T07:27:29.025Z,17.00
2023-04-18T07:30:02.079Z,15.90
2023-04-18T07:32:35.144Z,15.00
2023-04-18T07:35:10.047Z,16.20
2023-04-18T07:37:43.287Z,15.70
2023-04-18T07:40:18.004Z,15.30
2023-04-18T07:42:51.104Z,11.70
2023-04-18T07:45:24.598Z,15.60
2023-04-18T07:47:57.754Z,16.20
2023-04-18T07:50:30.840Z,12.70
2023-04-18T07:53:03.831Z,13.90
2023-04-18T07:55:36.759Z,14.10
2023-04-18T07:58:09.809Z,14.90
2023-04-18T08:00:44.979Z,13.40
2023-04-18T08:03:18.432Z,15.60
2023-04-18T08:05:52.046Z,18.00
2023-04-18T08:08:25.203Z,12.50
2023-04-18T08:10:58.629Z,13.30
2023-04-18T08:13:32.156Z,16.30
2023-04-18T08:16:05.728Z,15.10
2023-04-18T08:18:39.043Z,12.80
2023-04-18T08:21:12.036Z,13.50
2023-04-18T08:23:45.043Z,15.10
2023-04-18T08:26:18.285Z,12.40
2023-04-18T08:28:51.938Z,15.70
2023-04-18T08:31:25.039Z,14.90
2023-04-18T08:33:58.414Z,16.30
2023-04-18T08:36:31.859Z,14.40
2023-04-18T08:39:05.092Z,14.90
2023-04-18T08:41:39.686Z,17.10
2023-04-18T08:44:13.160Z,14.70
2023-04-18T08:46:46.534Z,17.00
2023-04-18T08:49:22.799Z,23.00
2023-04-18T08:51:57.692Z,16.50
2023-04-18T08:54:31.557Z,16.90
2023-04-18T08:57:12.679Z,23.00
2023-04-18T08:59:48.342Z,19.00
2023-04-18T09:02:24.204Z,19.20
2023-04-18T09:04:57.679Z,21.50
2023-04-18T09:07:33.407Z,19.60
2023-04-18T09:10:07.533Z,18.60
2023-04-18T09:12:50.405Z,18.30
2023-04-18T09:15:29.415Z,17.10
2023-04-18T09:18:03.831Z,14.50
2023-04-18T09:20:41.569Z,22.20
2023-04-18T09:23:24.741Z,18.90
2023-04-18T09:25:59.219Z,19.40
2023-04-18T09:28:34.500Z,18.30
2023-04-18T09:31:15.775Z,20.00
2023-04-18T09:33:57.036Z,18.30
2023-04-18T09:36:31.766Z,20.40
2023-04-18T09:39:05.487Z,21.70
2023-04-18T09:41:38.638Z,18.90
2023-04-18T09:44:15.851Z,18.00
2023-04-18T09:46:49.628Z,17.90
2023-04-18T09:49:22.734Z,15.90
2023-04-18T09:51:57.298Z,19.60
2023-04-18T09:54:34.458Z,17.80
2023-04-18T09:57:13.134Z,18.10
2023-04-18T09:59:52.902Z,17.60
2023-04-18T10:02:29.472Z,18.60
2023-04-18T10:05:04.465Z,15.90
2023-04-18T10:07:38.228Z,18.20
2023-04-18T10:10:12.776Z,17.20
2023-04-18T10:12:48.808Z,15.10
2023-04-18T10:15:25.068Z,15.20
2023-04-18T10:18:05.023Z,17.30
2023-04-18T10:20:41.758Z,17.60
2023-04-18T10:23:41.804Z,19.20
2023-04-18T10:26:14.921Z,16.00
2023-04-18T10:28:59.048Z,17.70
2023-04-18T10:31:40.321Z,17.50
2023-04-18T10:34:18.409Z,18.60
2023-04-18T10:37:09.094Z,15.00
2023-04-18T10:40:06.109Z,17.70
2023-04-18T10:43:02.499Z,16.00
2023-04-18T10:45:36.919Z,16.80
2023-04-18T10:48:31.433Z,18.70
2023-04-18T10:51:26.898Z,19.00
2023-04-18T10:54:02.695Z,21.30
2023-04-18T10:56:35.855Z,20.70
2023-04-18T10:59:10.951Z,18.80
2023-04-18T11:01:47.895Z,19.60
2023-04-18T11:04:21.331Z,22.60
2023-04-18T11:06:57.681Z,22.10
2023-04-18T11:09:30.981Z,16.70
2023-04-18T11:12:13.226Z,18.70
2023-04-18T11:14:47.995Z,20.80
2023-04-18T11:17:26.302Z,22.30
2023-04-18T11:20:09.377Z,18.20
2023-04-18T11:22:51.944Z,22.00
2023-04-18T11:25:28.852Z,21.30
2023-04-18T11:28:04.713Z,24.10
2023-04-18T11:30:43.991Z,19.10
2023-04-18T11:33:18.253Z,17.30
2023-04-18T11:35:51.383Z,23.20
2023-04-18T11:38:31.460Z,22.60
2023-04-18T11:41:06.591Z,20.50
2023-04-18T11:43:43.308Z,19.90
2023-04-18T11:46:16.761Z,21.30
2023-04-18T11:48:50.697Z,19.90
2023-04-18T11:51:40.466Z,20.20
2023-04-18T11:54:46.271Z,22.10
2023-04-18T11:57:28.326Z,16.30
2023-04-18T12:00:03.007Z,16.10
2023-04-18T12:02:47.419Z,16.20
2023-04-18T12:05:31.749Z,15.10
2023-04-18T12:08:13.387Z,19.40
2023-04-18T12:10:53.889Z,17.10
2023-04-18T12:13:36.131Z,17.60
2023-04-18T12:16:10.131Z,17.60
2023-04-18T12:18:43.518Z,23.20
2023-04-18T12:21:17.307Z,22.70
2023-04-18T12:23:50.647Z,17.70
2023-04-18T12:26:24.034Z,19.40
2023-04-18T12:28:58.526Z,18.70
2023-04-18T12:31:31.928Z,17.50
2023-04-18T12:34:07.058Z,14.60
2023-04-18T12:36:40.812Z,20.60
2023-04-18T12:39:13.876Z,14.40
2023-04-18T12:41:49.023Z,16.90
2023-04-18T12:44:24.774Z,13.60
2023-04-18T12:46:57.823Z,20.90
2023-04-18T12:49:30.942Z,17.30
2023-04-18T12:52:03.913Z,17.20
2023-04-18T12:54:37.990Z,16.40
2023-04-18T12:57:11.210Z,15.70
2023-04-18T12:59:44.133Z,16.20
2023-04-18T13:02:17.358Z,17.20
2023-04-18T13:04:51.520Z,20.60
2023-04-18T13:07:24.529Z,17.30
2023-04-18T13:09:57.531Z,17.70
2023-04-18T13:12:31.042Z,18.10
2023-04-18T13:15:04.544Z,15.90
2023-04-18T13:17:38.131Z,21.40
2023-04-18T13:20:13.856Z,19.20
2023-04-18T13:22:48.550Z,20.40
2023-04-18T13:25:21.874Z,21.80
2023-04-18T13:27:55.453Z,19.80
2023-04-18T13:30:28.991Z,17.60
2023-04-18T13:33:02.116Z,19.90
2023-04-18T13:35:35.489Z,21.90
2023-04-18T13:38:08.487Z,22.40
2023-04-18T13:40:41.632Z,21.30
2023-04-18T13:43:15.680Z,23.70
2023-04-18T13:45:48.835Z,22.70
2023-04-18T13:48:21.888Z,24.20
2023-04-18T13:50:54.961Z,19.10
2023-04-18T13:53:30.239Z,22.20
2023-04-18T13:56:04.035Z,18.80
2023-04-18T13:58:37.259Z,21.80
2023-04-18T14:01:10.407Z,17.60
2023-04-18T14:03:43.996Z,18.10
2023-04-18T14:06:17.186Z,15.10
2023-04-18T14:08:52.494Z,16.90
2023-04-18T14:11:26.607Z,15.60
2023-04-18T14:14:00.040Z,18.90
2023-04-18T14:16:33.831Z,17.80
2023-04-18T14:19:07.239Z,13.10
2023-04-18T14:21:40.359Z,16.60
2023-04-18T14:24:14.103Z,15.10
2023-04-18T14:26:47.230Z,17.60
2023-04-18T14:29:20.455Z,15.10
2023-04-18T14:31:54.057Z,15.90
2023-04-18T14:34:27.264Z,14.70
2023-04-18T14:37:00.571Z,15.20
2023-04-18T14:39:33.675Z,15.30
2023-04-18T14:42:07.101Z,15.30
2023-04-18T14:44:40.388Z,12.70
2023-04-18T14:47:13.451Z,13.70
2023-04-18T14:49:46.491Z,12.50
2023-04-18T14:52:19.644Z,13.00
2023-04-18T14:54:52.702Z,17.40
2023-04-18T14:57:26.603Z,13.60
2023-04-18T14:59:59.770Z,14.20
2023-04-18T15:02:33.069Z,15.30
2023-04-18T15:05:07.475Z,14.90
2023-04-18T15:07:43.038Z,19.00
2023-04-18T15:10:18.263Z,20.00
2023-04-18T15:12:52.568Z,14.00
2023-04-18T15:15:26.131Z,17.10
2023-04-18T15:18:00.383Z,15.70
2023-04-18T15:20:34.591Z,15.90
2023-04-18T15:23:07.682Z,14.10
2023-04-18T15:25:40.684Z,16.40
2023-04-18T15:28:14.723Z,17.20
2023-04-18T15:30:47.826Z,19.20
2023-04-18T15:33:21.329Z,16.30
2023-04-18T15:35:56.302Z,22.80
2023-04-18T15:38:30.516Z,19.70
2023-04-18T15:41:05.540Z,18.50
2023-04-18T15:43:41.019Z,19.30
2023-04-18T15:46:14.298Z,21.30
2023-04-18T15:48:47.437Z,23.60
2023-04-18T15:51:20.616Z,30.30
2023-04-18T15:53:54.475Z,22.70
2023-04-18T15:56:32.512Z,23.20
2023-04-18T15:59:07.448Z,20.50
2023-04-18T16:01:42.026Z,21.80
2023-04-18T16:04:16.749Z,23.20
2023-04-18T16:06:49.950Z,20.00
2023-04-18T16:09:23.219Z,21.30
2023-04-18T16:11:56.464Z,26.70
2023-04-18T16:14:29.570Z,22.20
2023-04-18T16:17:03.938Z,24.60
2023-04-18T16:19:39.120Z,25.10
2023-04-18T16:22:12.612Z,25.70
2023-04-18T16:24:45.678Z,25.80
2023-04-18T16:27:18.740Z,27.60
2023-04-18T16:29:53.889Z,31.20
2023-04-18T16:32:27.038Z,27.20
2023-04-18T16:35:00.243Z,25.30
2023-04-18T16:37:33.493Z,24.60
2023-04-18T16:40:10.080Z,24.50
2023-04-18T16:42:43.209Z,22.80
2023-04-18T16:45:17.524Z,24.40
2023-04-18T16:47:50.878Z,26.10
2023-04-18T16:50:24.958Z,26.30
2023-04-18T16:52:58.028Z,26.50
2023-04-18T16:55:31.256Z,23.70
2023-04-18T16:58:04.243Z,27.00
2023-04-18T17:00:38.655Z,27.10
2023-04-18T17:03:12.282Z,29.00
2023-04-18T17:05:45.775Z,26.60
2023-04-18T17:08:19.739Z,25.90
2023-04-18T17:10:56.105Z,25.10
2023-04-18T17:13:30.866Z,24.90
2023-04-18T17:16:03.948Z,27.90
2023-04-18T17:18:37.100Z,29.10
2023-04-18T17:21:12.723Z,26.90
2023-04-18T17:23:45.961Z,24.10
2023-04-18T17:26:19.244Z,23.70
2023-04-18T17:28:53.157Z,21.80
2023-04-18T17:31:26.436Z,33.30
2023-04-18T17:33:59.833Z,24.10
2023-04-18T17:36:33.133Z,24.70
2023-04-18T17:39:06.978Z,27.20
2023-04-18T17:41:41.878Z,25.70
2023-04-18T17:44:18.489Z,24.50
2023-04-18T17:46:51.807Z,22.90
2023-04-18T17:49:30.909Z,23.30
2023-04-18T17:52:04.038Z,26.40
2023-04-18T17:54:37.163Z,30.70
2023-04-18T17:57:10.386Z,27.30
2023-04-18T17:59:43.909Z,28.70
2023-04-18T18:02:17.631Z,28.10
2023-04-18T18:04:51.743Z,20.50
2023-04-18T18:07:24.922Z,24.00
2023-04-18T18:09:58.610Z,28.30
2023-04-18T18:12:32.506Z,22.70
2023-04-18T18:15:06.487Z,20.00
2023-04-18T18:17:39.677Z,27.10
2023-04-18T18:20:15.136Z,23.60
2023-04-18T18:22:48.565Z,32.00
2023-04-18T18:25:22.156Z,34.00
2023-04-18T18:27:55.312Z,27.60
2023-04-18T18:30:28.694Z,24.10
2023-04-18T18:33:03.620Z,24.90
2023-04-18T18:35:36.825Z,25.90
2023-04-18T18:38:10.352Z,26.80
2023-04-18T18:40:43.604Z,26.10
2023-04-18T18:43:17.011Z,29.20
2023-04-18T18:45:50.372Z,27.70
2023-04-18T18:48:23.450Z,24.70
2023-04-18T18:50:58.456Z,29.70
2023-04-18T18:53:31.817Z,32.80
2023-04-18T18:56:05.451Z,22.60
2023-04-18T18:58:39.386Z,24.70
2023-04-18T19:01:12.899Z,30.70
2023-04-18T19:03:46.370Z,28.20
2023-04-18T19:06:19.647Z,26.90
2023-04-18T19:08:52.727Z,30.00
2023-04-18T19:11:26.960Z,26.40
2023-04-18T19:13:59.993Z,25.90
2023-04-18T19:16:36.685Z,27.30
2023-04-18T19:19:10.403Z,25.10
2023-04-18T19:21:46.110Z,27.40
2023-04-18T19:24:19.627Z,27.90
2023-04-18T19:26:52.809Z,23.90
2023-04-18T19:29:26.876Z,20.60
2023-04-18T19:32:00.061Z,26.60
2023-04-18T19:34:33.111Z,22.70
2023-04-18T19:37:06.209Z,22.80
2023-04-18T19:39:39.334Z,21.90
2023-04-18T19:42:12.427Z,21.60
2023-04-18T19:44:45.758Z,24.50
2023-04-18T19:47:18.870Z,26.50
2023-04-18T19:49:51.903Z,18.40
2023-04-18T19:52:25.137Z,20.50
2023-04-18T19:54:58.321Z,24.60
2023-04-18T19:57:31.963Z,19.30
2023-04-18T20:00:05.445Z,19.80
2023-04-18T20:02:45.937Z,22.60
2023-04-18T20:05:19.787Z,23.80
2023-04-18T20:07:55.275Z,22.30
2023-04-18T20:10:28.761Z,21.60
2023-04-18T20:13:03.220Z,23.10
2023-04-18T20:15:36.817Z,23.90
2023-04-18T20:18:10.971Z,22.40
2023-04-18T20:20:44.483Z,21.20
2023-04-18T20:23:17.973Z,22.60
2023-04-18T20:25:51.169Z,24.10
2023-04-18T20:28:24.353Z,19.40
2023-04-18T20:30:57.631Z,20.30
2023-04-18T20:33:33.535Z,18.70
2023-04-18T20:36:08.481Z,21.80
2023-04-18T20:38:41.640Z,25.20
2023-04-18T20:41:18.354Z,18.60
2023-04-18T20:43:53.991Z,19.90
2023-04-18T20:46:27.493Z,20.40
2023-04-18T20:49:00.684Z,16.50
2023-04-18T20:51:34.680Z,27.60
2023-04-18T20:54:08.002Z,27.70
2023-04-18T20:56:41.985Z,25.10
2023-04-18T20:59:18.016Z,23.20
2023-04-18T21:01:50.993Z,21.20
2023-04-18T21:04:24.663Z,22.40
2023-04-18T21:06:58.090Z,22.90
2023-04-18T21:09:36.598Z,21.60
2023-04-18T21:12:10.033Z,23.10
2023-04-18T21:14:43.076Z,21.10
2023-04-18T21:17:17.611Z,24.60
2023-04-18T21:19:51.298Z,21.00
2023-04-18T21:22:24.358Z,28.10
2023-04-18T21:24:57.342Z,23.40
2023-04-18T21:27:30.356Z,21.90
2023-04-18T21:30:04.946Z,19.20
2023-04-18T21:32:38.321Z,24.40
2023-04-18T21:35:12.876Z,24.60
2023-04-18T21:37:45.873Z,19.40
2023-04-18T21:40:19.577Z,21.60
2023-04-18T21:42:52.633Z,24.60
2023-04-18T21:45:26.271Z,22.90
2023-04-18T21:47:59.276Z,18.30
2023-04-18T21:50:32.285Z,19.70
2023-04-18T21:53:05.318Z,19.70
2023-04-18T21:55:38.298Z,20.80
2023-04-18T21:58:11.235Z,25.00
2023-04-18T22:00:44.256Z,21.20
2023-04-18T22:03:17.768Z,23.00
2023-04-18T22:05:52.607Z,24.00
2023-04-18T22:08:26.921Z,23.50
2023-04-18T22:11:01.086Z,24.50
2023-04-18T22:13:34.633Z,23.00
2023-04-18T22:16:10.261Z,18.90
2023-04-18T22:18:43.223Z,18.50
2023-04-18T22:21:16.383Z,22.20
2023-04-18T22:23:49.468Z,19.20
2023-04-18T22:26:22.617Z,19.60
2023-04-18T22:28:55.682Z,17.40
2023-04-18T22:31:29.060Z,18.70
2023-04-18T22:34:02.278Z,19.50
2023-04-18T22:36:35.530Z,21.80
2023-04-18T22:39:08.601Z,18.30
2023-04-18T22:41:43.083Z,19.60
2023-04-18T22:44:16.261Z,19.80
2023-04-18T22:46:49.720Z,18.50
2023-04-18T22:49:23.465Z,19.70
2023-04-18T22:51:56.526Z,18.50
2023-04-18T22:54:29.508Z,20.40
2023-04-18T22:57:02.958Z,17.00
2023-04-18T22:59:36.382Z,20.70
2023-04-18T23:02:09.482Z,22.60
2023-04-18T23:04:45.685Z,17.40
2023-04-18T23:07:18.789Z,20.00
2023-04-18T23:09:51.726Z,16.40
2023-04-18T23:12:24.828Z,19.80
2023-04-18T23:14:57.873Z,18.00
2023-04-18T23:17:30.916Z,18.30
2023-04-18T23:20:04.829Z,17.20
2023-04-18T23:22:38.531Z,20.80
2023-04-18T23:25:12.496Z,20.40
2023-04-18T23:27:46.023Z,18.20
2023-04-18T23:30:19.635Z,16.30
2023-04-18T23:32:52.730Z,16.40
2023-04-18T23:35:25.768Z,19.40
2023-04-18T23:37:58.788Z,19.60
2023-04-18T23:40:31.885Z,19.80
2023-04-18T23:43:05.085Z,17.40
2023-04-18T23:45:38.062Z,18.40
2023-04-18T23:48:11.033Z,16.20
2023-04-18T23:50:49.639Z,21.80
2023-04-18T23:53:23.423Z,18.50
2023-04-18T23:55:56.421Z,18.90
2023-04-18T23:58:31.814Z,19.30
